Time;durP1;ratioP1;P1;durP2;ratioP2;P2;SDS_P1;SDS_P2;PMS_P1;PMS_P2;Temp;Humidity;BMP_temperature;BMP_pressure;BME280_temperature;BME280_humidity;BME280_pressure;Samples;Min_cycle;Max_cycle;Signal;HPM_P1;HPM_P2
2023/02/27 00:01:24;;;;;;;1.85;0.95;;;14.70;52.70;;;;;;6275968;22;20071;-78
2023/02/27 00:03:50;;;;;;;1.05;0.80;;;14.70;52.70;;;;;;6275752;22;20415;-77
2023/02/27 00:06:16;;;;;;;1.42;0.73;;;14.70;52.80;;;;;;6275994;22;20004;-78
2023/02/27 00:08:43;;;;;;;1.33;0.80;;;14.70;52.80;;;;;;6276071;22;20444;-78
2023/02/27 00:11:09;;;;;;;1.58;1.13;;;14.70;53.40;;;;;;6276594;22;20007;-77
2023/02/27 00:13:35;;;;;;;1.35;0.90;;;14.70;52.80;;;;;;6276334;22;20000;-77
2023/02/27 00:16:01;;;;;;;1.23;0.88;;;14.70;52.80;;;;;;6275996;22;20338;-78
2023/02/27 00:18:27;;;;;;;1.38;1.02;;;14.70;53.50;;;;;;6276363;22;20292;-78
2023/02/27 00:20:53;;;;;;;1.63;0.73;;;14.70;52.80;;;;;;6275943;22;19996;-78
2023/02/27 00:23:19;;;;;;;0.70;0.70;;;14.70;52.80;;;;;;6276231;22;19992;-78
2023/02/27 00:25:45;;;;;;;1.13;0.80;;;14.70;52.80;;;;;;6275857;22;20011;-77
2023/02/27 00:28:11;;;;;;;1.13;0.60;;;14.70;52.80;;;;;;6275892;22;19999;-77
2023/02/27 00:30:37;;;;;;;2.08;0.70;;;14.70;52.80;;;;;;6276281;22;20004;-80
2023/02/27 00:33:04;;;;;;;1.25;0.70;;;14.70;52.80;;;;;;6248855;22;20323;-80
2023/02/27 00:35:30;;;;;;;1.23;0.90;;;14.70;52.80;;;;;;6276199;22;19996;-79
2023/02/27 00:37:56;;;;;;;1.65;0.85;;;14.70;52.80;;;;;;6276146;22;20018;-79
2023/02/27 00:40:24;;;;;;;1.77;0.70;;;14.70;52.90;;;;;;6276133;22;20000;-77
2023/02/27 00:42:51;;;;;;;2.05;1.00;;;14.70;52.80;;;;;;6276027;22;19995;-80
2023/02/27 00:45:19;;;;;;;1.05;0.57;;;14.70;52.90;;;;;;6275850;22;20010;-80
2023/02/27 00:47:45;;;;;;;1.33;0.63;;;14.60;52.80;;;;;;6276199;22;20068;-78
2023/02/27 00:50:13;;;;;;;1.48;0.95;;;14.60;53.50;;;;;;6276050;22;19996;-79
2023/02/27 00:52:39;;;;;;;1.73;0.73;;;14.60;52.90;;;;;;6275869;22;20071;-79
2023/02/27 00:55:06;;;;;;;0.98;0.60;;;14.60;52.90;;;;;;6275596;22;20018;-80
2023/02/27 00:57:32;;;;;;;1.67;0.82;;;14.60;52.90;;;;;;6275683;22;20003;-80
2023/02/27 00:59:58;;;;;;;1.38;0.60;;;14.60;52.90;;;;;;6275971;22;19992;-77
2023/02/27 01:02:24;;;;;;;0.95;0.57;;;15.30;53.20;;;;;;6275866;22;19999;-80
2023/02/27 01:04:50;;;;;;;1.05;0.80;;;14.60;52.90;;;;;;6275932;22;20062;-80
2023/02/27 01:07:17;;;;;;;1.13;0.85;;;14.60;52.90;;;;;;6275978;22;20004;-80
2023/02/27 01:09:43;;;;;;;1.33;0.80;;;14.60;52.80;;;;;;6275595;22;19992;-79
2023/02/27 01:12:09;;;;;;;1.52;0.90;;;14.60;52.90;;;;;;6275385;22;20025;-80
2023/02/27 01:14:36;;;;;;;2.15;0.82;;;14.60;52.90;;;;;;6275828;22;20018;-79
2023/02/27 01:17:02;;;;;;;0.70;0.52;;;14.60;53.00;;;;;;6275470;22;20002;-80
2023/02/27 01:19:28;;;;;;;0.90;0.60;;;14.60;52.90;;;;;;6276154;22;20037;-80
2023/02/27 01:21:54;;;;;;;1.15;0.60;;;14.60;53.10;;;;;;6275953;22;19995;-77
2023/02/27 01:24:20;;;;;;;1.13;0.65;;;14.60;53.70;;;;;;6276413;22;20323;-77
2023/02/27 01:26:47;;;;;;;1.38;0.70;;;14.60;53.10;;;;;;6275453;22;20526;-79
2023/02/27 01:29:14;;;;;;;0.77;0.60;;;14.60;53.00;;;;;;6275313;22;20044;-80
2023/02/27 01:31:40;;;;;;;0.73;0.52;;;14.60;53.00;;;;;;6275400;22;19996;-77
2023/02/27 01:34:06;;;;;;;1.95;0.68;;;14.50;53.00;;;;;;6276202;22;20004;-80
2023/02/27 01:36:32;;;;;;;1.25;0.60;;;14.50;53.00;;;;;;6276039;22;20476;-78
2023/02/27 01:38:58;;;;;;;1.70;0.80;;;14.50;53.00;;;;;;6275507;22;20023;-80
2023/02/27 01:41:24;;;;;;;1.63;0.60;;;14.50;53.00;;;;;;6275945;22;20007;-80
2023/02/27 01:43:53;;;;;;;2.08;0.90;;;14.50;52.90;;;;;;6275937;22;19996;-79
2023/02/27 01:46:19;;;;;;;1.05;0.80;;;14.60;53.10;;;;;;6275313;22;20012;-79
2023/02/27 01:48:46;;;;;;;0.77;0.57;;;14.50;53.00;;;;;;6275833;22;20066;-79
2023/02/27 01:51:20;;;;;;;0.80;0.60;;;14.50;53.00;;;;;;6275846;22;20327;-79
2023/02/27 01:53:51;;;;;;;0.95;0.55;;;14.50;53.00;;;;;;6275764;22;19996;-79
2023/02/27 01:56:18;;;;;;;;;;;14.50;53.00;;;;;;6276418;22;20032;-79
2023/02/27 01:58:46;;;;;;;1.52;0.70;;;14.50;53.00;;;;;;6275829;22;19934;-80
2023/02/27 02:01:13;;;;;;;1.38;0.65;;;14.50;61.60;;;;;;6275677;22;20477;-79
2023/02/27 02:03:43;;;;;;;1.92;0.60;;;14.50;53.00;;;;;;6275873;22;20003;-79
2023/02/27 02:06:10;;;;;;;1.03;0.60;;;14.50;53.00;;;;;;6275369;22;20522;-79
2023/02/27 02:08:41;;;;;;;2.20;0.70;;;14.40;53.00;;;;;;6275351;22;20234;-79
2023/02/27 02:11:08;;;;;;;1.73;0.52;;;14.40;53.00;;;;;;6275678;22;20370;-79
2023/02/27 02:13:37;;;;;;;1.33;0.80;;;14.40;53.60;;;;;;6275275;22;19999;-80
2023/02/27 02:16:08;;;;;;;1.58;0.80;;;14.40;53.10;;;;;;6275612;22;20062;-79
2023/02/27 02:18:52;;;;;;;0.88;0.50;;;14.40;53.00;;;;;;6275312;22;20007;-80
2023/02/27 02:21:32;;;;;;;0.98;0.52;;;14.40;52.90;;;;;;6275777;22;19996;-79
2023/02/27 02:24:26;;;;;;;1.00;0.70;;;14.40;53.00;;;;;;6275629;22;19996;-80
2023/02/27 02:27:03;;;;;;;1.27;0.57;;;14.40;53.00;;;;;;6275533;22;20447;-79
2023/02/27 02:29:47;;;;;;;1.38;0.40;;;14.40;52.90;;;;;;6277261;22;20019;-80
2023/02/27 02:32:47;;;;;;;0.70;0.60;;;14.40;53.60;;;;;;6277516;22;20004;-79
2023/02/27 02:35:41;;;;;;;0.90;0.50;;;14.40;53.00;;;;;;6277415;22;19999;-79
2023/02/27 02:38:31;;;;;;;1.75;0.52;;;14.40;53.00;;;;;;6276964;22;20042;-79
2023/02/27 02:41:14;;;;;;;0.82;0.60;;;14.40;53.00;;;;;;6277388;22;20004;-79
2023/02/27 02:43:50;;;;;;;0.65;0.63;;;14.40;53.00;;;;;;6276918;22;20098;-79
2023/02/27 02:46:25;;;;;;;0.80;0.60;;;14.40;53.00;;;;;;6277336;22;20031;-79
2023/02/27 02:49:32;;;;;;;1.35;0.70;;;14.40;53.00;;;;;;6277143;22;19996;-80
2023/02/27 02:52:27;;;;;;;1.00;0.75;;;14.40;53.00;;;;;;6277374;22;20041;-79
2023/02/27 02:55:15;;;;;;;0.60;0.50;;;14.30;52.90;;;;;;6257635;22;20007;-79
2023/02/27 02:57:48;;;;;;;0.50;0.40;;;14.30;52.90;;;;;;6277472;22;20012;-79
2023/02/27 03:00:21;;;;;;;1.85;0.93;;;14.30;52.90;;;;;;6277024;22;20460;-80
2023/02/27 03:03:10;;;;;;;1.55;0.70;;;14.30;53.50;;;;;;6277097;22;20368;-79
2023/02/27 03:05:57;;;;;;;1.60;0.60;;;14.30;52.90;;;;;;6277154;22;20034;-79
2023/02/27 03:08:32;;;;;;;0.73;0.60;;;14.30;52.90;;;;;;6277301;22;20234;-77
2023/02/27 03:11:02;;;;;;;1.85;0.80;;;14.30;52.90;;;;;;6276712;22;20501;-79
2023/02/27 03:13:31;;;;;;;1.25;0.73;;;14.30;52.90;;;;;;6276794;22;20004;-79
2023/02/27 03:16:33;;;;;;;0.75;0.50;;;14.30;52.90;;;;;;6276753;22;20462;-79
2023/02/27 03:19:14;;;;;;;1.25;0.60;;;14.30;52.90;;;;;;6276985;22;20498;-79
2023/02/27 03:21:56;;;;;;;0.63;0.60;;;14.20;52.80;;;;;;6276833;22;19991;-79
2023/02/27 03:24:30;;;;;;;0.63;0.50;;;14.20;52.90;;;;;;6250517;22;20000;-79
2023/02/27 03:27:01;;;;;;;0.65;0.50;;;14.20;52.90;;;;;;6276292;22;20087;-79
2023/02/27 03:29:36;;;;;;;0.70;0.43;;;14.20;52.90;;;;;;6250361;22;19992;-79
2023/02/27 03:32:29;;;;;;;1.38;0.68;;;14.20;52.80;;;;;;6276949;22;20003;-79
2023/02/27 03:34:55;;;;;;;1.20;0.68;;;14.20;52.80;;;;;;6277050;22;20355;-79
2023/02/27 03:37:43;;;;;;;0.95;0.55;;;14.20;52.90;;;;;;6276425;22;19992;-79
2023/02/27 03:40:36;;;;;;;1.10;0.60;;;14.20;53.40;;;;;;6276415;22;20373;-79
2023/02/27 03:43:17;;;;;;;0.65;0.40;;;14.20;52.90;;;;;;6276488;22;20458;-79
2023/02/27 03:46:00;;;;;;;0.57;0.40;;;14.20;52.90;;;;;;6276436;22;20004;-79
2023/02/27 03:48:26;;;;;;;1.50;0.68;;;14.10;52.80;;;;;;6276681;22;20058;-79
2023/02/27 03:50:52;;;;;;;1.33;0.50;;;14.10;52.80;;;;;;6276660;22;20061;-79
2023/02/27 03:53:36;;;;;;;1.40;0.60;;;14.10;52.80;;;;;;6276666;22;20008;-80
2023/02/27 03:56:05;;;;;;;1.58;0.70;;;14.10;52.80;;;;;;6286877;22;19992;-79
2023/02/27 03:58:31;;;;;;;0.60;0.50;;;14.10;52.80;;;;;;6286605;22;20315;-79
2023/02/27 04:00:57;;;;;;;0.68;0.50;;;14.10;52.80;;;;;;6286616;22;19992;-79
2023/02/27 04:03:23;;;;;;;1.15;0.57;;;14.10;52.80;;;;;;6286283;22;19995;-79
2023/02/27 04:05:49;;;;;;;2.78;0.68;;;14.10;52.80;;;;;;6286200;22;20320;-79
2023/02/27 04:09:00;;;;;;;0.75;0.52;;;14.10;52.80;;;;;;6286128;22;20041;-80
2023/02/27 04:11:37;;;;;;;0.80;0.50;;;14.10;52.80;;;;;;6261049;22;20469;-76
2023/02/27 04:14:27;;;;;;;1.00;0.47;;;14.10;52.80;;;;;;6276351;22;20006;-77
2023/02/27 04:17:05;;;;;;;1.17;0.40;;;14.10;52.80;;;;;;6276238;22;20280;-76
2023/02/27 04:20:29;;;;;;;0.50;0.50;;;14.00;52.70;;;;;;6276191;22;20008;-76
2023/02/27 04:23:17;;;;;;;1.30;0.50;;;14.00;52.80;;;;;;6217450;22;19999;-76
2023/02/27 04:26:09;;;;;;;2.38;0.50;;;14.00;53.40;;;;;;6286003;22;20087;-77
2023/02/27 04:28:58;;;;;;;0.50;0.20;;;14.00;52.80;;;;;;6257740;22;20061;-77
2023/02/27 04:31:24;;;;;;;1.02;0.60;;;14.00;53.40;;;;;;6286346;22;19995;-77
2023/02/27 04:34:02;;;;;;;0.73;0.47;;;14.00;52.80;;;;;;6248789;22;20003;-77
2023/02/27 04:36:27;;;;;;;0.60;0.50;;;14.00;52.80;;;;;;6275912;22;19996;-77
2023/02/27 04:39:11;;;;;;;1.02;0.47;;;14.00;52.90;;;;;;6286085;22;20002;-77
2023/02/27 04:42:02;;;;;;;1.13;0.60;;;14.00;52.80;;;;;;6286099;22;20003;-76
2023/02/27 04:44:30;;;;;;;0.82;0.50;;;14.00;52.90;;;;;;6286043;22;20049;-77
2023/02/27 04:46:58;;;;;;;1.20;0.40;;;13.90;52.90;;;;;;6286039;22;20039;-77
2023/02/27 04:49:39;;;;;;;1.00;0.55;;;13.90;53.00;;;;;;6285916;22;20003;-77
2023/02/27 04:52:17;;;;;;;1.45;0.52;;;13.90;53.00;;;;;;6258817;22;20008;-77
2023/02/27 04:55:03;;;;;;;0.60;0.40;;;13.90;53.00;;;;;;6235359;22;20078;-76
2023/02/27 04:57:40;;;;;;;1.33;0.70;;;13.90;53.10;;;;;;6234996;22;20438;-76
2023/02/27 05:00:10;;;;;;;1.10;0.50;;;13.90;53.10;;;;;;6235150;22;20007;-77
2023/02/27 05:03:20;;;;;;;0.65;0.40;;;13.90;53.10;;;;;;6186345;22;20490;-76
2023/02/27 05:05:47;;;;;;;0.95;0.50;;;13.90;53.00;;;;;;6255253;23;20015;-76
2023/02/27 05:08:37;;;;;;;0.75;0.35;;;13.90;53.10;;;;;;6255382;22;20382;-76
2023/02/27 05:11:23;;;;;;;1.77;0.43;;;13.90;53.10;;;;;;6255417;22;20322;-76
2023/02/27 05:13:55;;;;;;;0.40;0.30;;;13.80;53.00;;;;;;6255255;22;19992;-76
2023/02/27 05:16:33;;;;;;;0.52;0.40;;;13.80;53.10;;;;;;6255332;22;19996;-77
2023/02/27 05:19:01;;;;;;;0.73;0.57;;;13.80;53.00;;;;;;6245115;22;20454;-76
2023/02/27 05:21:49;;;;;;;0.70;0.50;;;13.80;53.00;;;;;;6255192;22;20082;-77
2023/02/27 05:24:59;;;;;;;0.60;0.40;;;13.90;53.20;;;;;;6255152;22;20007;-77
2023/02/27 05:27:57;;;;;;;0.82;0.30;;;13.80;53.10;;;;;;6220232;22;20011;-77
2023/02/27 05:30:35;;;;;;;0.70;0.50;;;13.90;53.10;;;;;;6255255;22;19996;-76
2023/02/27 05:33:44;;;;;;;1.15;0.60;;;13.80;53.10;;;;;;6255200;22;19996;-76
2023/02/27 05:36:16;;;;;;;1.25;0.52;;;13.80;53.00;;;;;;6191661;23;20001;-77
2023/02/27 05:38:57;;;;;;;0.63;0.60;;;13.80;53.10;;;;;;6244332;22;20506;-76
2023/02/27 05:41:27;;;;;;;0.68;0.40;;;13.80;53.10;;;;;;6255109;22;20115;-76
2023/02/27 05:44:12;;;;;;;0.80;0.35;;;13.80;53.10;;;;;;6255049;22;20122;-76
2023/02/27 05:46:43;;;;;;;1.00;0.60;;;13.80;53.10;;;;;;6255026;22;20004;-77
2023/02/27 05:49:24;;;;;;;0.95;0.50;;;13.80;53.20;;;;;;6255034;22;19997;-76
2023/02/27 05:51:52;;;;;;;0.30;0.30;;;13.80;53.30;;;;;;6254978;22;20365;-76
2023/02/27 05:54:40;;;;;;;0.88;0.60;;;13.70;53.20;;;;;;6254993;22;20003;-76
2023/02/27 05:57:10;;;;;;;0.90;0.55;;;13.70;53.20;;;;;;6245234;22;20330;-77
2023/02/27 06:00:02;;;;;;;1.35;0.50;;;13.70;53.30;;;;;;6254971;22;20004;-76
2023/02/27 06:02:27;;;;;;;1.05;0.45;;;13.80;53.30;;;;;;6239454;23;20346;-76
2023/02/27 06:04:53;;;;;;;0.60;0.60;;;13.70;53.30;;;;;;6257090;22;19996;-76
2023/02/27 06:07:19;;;;;;;0.85;0.60;;;13.70;53.20;;;;;;6256988;22;20498;-76
2023/02/27 06:09:46;;;;;;;0.68;0.60;;;13.70;53.20;;;;;;6256961;22;20327;-77
2023/02/27 06:12:11;;;;;;;1.27;0.55;;;13.80;53.20;;;;;;6257129;22;20434;-76
2023/02/27 06:14:37;;;;;;;1.50;0.60;;;13.80;53.10;;;;;;6247120;22;20000;-76
2023/02/27 06:17:02;;;;;;;1.38;0.47;;;13.70;53.10;;;;;;6256950;22;20370;-76
2023/02/27 06:19:28;;;;;;;0.30;0.30;;;13.70;53.10;;;;;;6256925;22;20003;-77
2023/02/27 06:21:54;;;;;;;0.93;0.57;;;13.80;53.20;;;;;;6256837;22;19999;-76
2023/02/27 06:24:19;;;;;;;0.93;0.47;;;13.70;53.10;;;;;;6256856;22;20423;-76
2023/02/27 06:26:46;;;;;;;0.93;0.70;;;13.70;53.10;;;;;;6256785;22;20134;-76
2023/02/27 06:29:12;;;;;;;1.45;0.80;;;13.70;53.10;;;;;;6246481;22;19992;-77
2023/02/27 06:31:38;;;;;;;5.70;1.33;;;13.70;53.00;;;;;;6256877;22;20042;-76
2023/02/27 06:34:03;;;;;;;3.22;1.40;;;13.70;53.00;;;;;;6261678;22;20000;-77
2023/02/27 06:36:29;;;;;;;4.32;1.85;;;13.70;53.10;;;;;;6260642;22;20442;-76
2023/02/27 06:38:54;;;;;;;2.08;1.00;;;13.70;53.10;;;;;;6256625;22;20030;-76
2023/02/27 06:41:20;;;;;;;5.63;1.83;;;13.70;53.10;;;;;;6256652;22;20085;-76
2023/02/27 06:43:46;;;;;;;6.38;1.70;;;13.70;53.10;;;;;;6256540;22;19996;-77
2023/02/27 06:46:11;;;;;;;2.17;1.63;;;13.70;53.20;;;;;;6256420;22;20427;-76
2023/02/27 06:48:37;;;;;;;4.90;1.42;;;13.70;53.20;;;;;;6256545;22;19992;-77
2023/02/27 06:51:03;;;;;;;6.05;1.30;;;13.70;53.10;;;;;;6246657;22;20014;-76
2023/02/27 06:53:28;;;;;;;2.20;1.10;;;13.70;53.10;;;;;;6256618;22;20023;-76
2023/02/27 06:55:54;;;;;;;3.65;1.33;;;13.70;53.10;;;;;;6256513;22;20011;-77
2023/02/27 06:58:20;;;;;;;2.33;1.33;;;13.70;53.10;;;;;;6256635;22;19993;-78
2023/02/27 07:00:45;;;;;;;3.75;1.30;;;13.70;53.00;;;;;;6246607;22;20087;-78
2023/02/27 07:03:12;;;;;;;2.25;1.20;;;13.60;52.90;;;;;;6256201;22;20008;-82
2023/02/27 07:05:37;;;;;;;2.88;1.50;;;13.70;53.70;;;;;;6256359;22;20011;-79
2023/02/27 07:08:03;;;;;;;3.15;1.23;;;13.70;52.90;;;;;;6256309;22;19996;-78
2023/02/27 07:10:29;;;;;;;1.70;1.20;;;13.60;52.90;;;;;;6246354;22;20004;-74
2023/02/27 07:12:55;;;;;;;4.30;1.23;;;13.60;52.90;;;;;;6245909;22;20049;-75
2023/02/27 07:15:22;;;;;;;2.72;1.23;;;13.60;52.90;;;;;;6245993;22;19996;-75
2023/02/27 07:17:48;;;;;;;2.35;1.30;;;13.60;53.00;;;;;;6246023;22;19992;-75
2023/02/27 07:20:14;;;;;;;2.35;1.02;;;13.60;53.10;;;;;;6246233;22;20079;-75
2023/02/27 07:22:40;;;;;;;1.25;0.98;;;13.70;53.10;;;;;;6246340;22;19999;-73
2023/02/27 07:25:07;;;;;;;1.70;1.30;;;13.60;53.10;;;;;;6245986;22;20000;-75
2023/02/27 07:27:33;;;;;;;1.88;1.15;;;13.70;53.10;;;;;;6245885;22;19996;-75
2023/02/27 07:30:00;;;;;;;1.95;0.90;;;13.60;53.10;;;;;;6246150;22;19996;-75
2023/02/27 07:32:26;;;;;;;3.83;1.40;;;13.60;53.20;;;;;;6245847;22;20027;-75
2023/02/27 07:34:53;;;;;;;4.18;1.08;;;13.60;53.10;;;;;;6246156;22;19996;-74
2023/02/27 07:37:19;;;;;;;2.85;1.17;;;13.60;53.20;;;;;;6245992;22;20064;-75
2023/02/27 07:39:45;;;;;;;1.25;1.00;;;13.60;53.10;;;;;;6245698;22;19996;-75
2023/02/27 07:42:11;;;;;;;1.48;1.00;;;13.60;53.00;;;;;;6245597;22;19996;-74
2023/02/27 07:44:37;;;;;;;1.45;0.93;;;13.60;53.10;;;;;;6245748;22;20023;-75
2023/02/27 07:47:03;;;;;;;2.08;0.90;;;13.60;53.00;;;;;;6246103;22;20008;-74
2023/02/27 07:49:29;;;;;;;2.45;0.98;;;13.60;53.00;;;;;;6246218;22;20015;-75
2023/02/27 07:51:55;;;;;;;1.55;0.90;;;13.60;53.10;;;;;;6246158;22;20059;-74
2023/02/27 07:54:21;;;;;;;2.38;1.15;;;13.60;53.00;;;;;;6245702;22;20060;-74
2023/02/27 07:56:47;;;;;;;2.65;1.30;;;13.60;53.00;;;;;;6246142;22;19996;-76
2023/02/27 07:59:13;;;;;;;1.85;0.80;;;13.60;53.00;;;;;;6251528;22;20020;-73
2023/02/27 08:01:39;;;;;;;2.17;1.08;;;13.60;53.00;;;;;;6249235;22;19996;-75
2023/02/27 08:04:05;;;;;;;2.20;1.08;;;13.70;53.10;;;;;;6245494;22;20015;-75
2023/02/27 08:06:31;;;;;;;1.60;1.20;;;13.60;52.90;;;;;;6245438;22;20335;-75
2023/02/27 08:08:57;;;;;;;3.45;1.05;;;13.60;52.90;;;;;;6245360;22;19999;-76
2023/02/27 08:11:23;;;;;;;2.42;0.95;;;13.60;52.90;;;;;;6245448;22;20044;-76
2023/02/27 08:13:49;;;;;;;1.58;1.13;;;13.60;53.00;;;;;;6245804;22;20084;-74
2023/02/27 08:16:15;;;;;;;1.95;1.00;;;13.60;53.00;;;;;;6245777;22;20028;-75
2023/02/27 08:18:41;;;;;;;1.17;0.85;;;13.70;53.00;;;;;;6245353;22;20450;-75
2023/02/27 08:21:07;;;;;;;2.30;1.00;;;13.70;53.10;;;;;;6245503;22;20446;-75
2023/02/27 08:23:33;;;;;;;2.22;1.10;;;13.70;53.10;;;;;;6245538;22;20436;-76
2023/02/27 08:26:01;;;;;;;2.55;1.00;;;13.70;53.10;;;;;;6245293;22;20058;-75
2023/02/27 08:28:27;;;;;;;2.03;1.00;;;13.70;53.10;;;;;;6245719;22;20003;-75
2023/02/27 08:30:54;;;;;;;1.45;1.00;;;13.70;53.10;;;;;;6245382;22;20054;-79
2023/02/27 08:33:21;;;;;;;2.08;0.90;;;13.70;53.00;;;;;;6245311;22;20428;-75
2023/02/27 08:35:47;;;;;;;3.10;1.30;;;13.70;53.10;;;;;;6245771;22;20019;-75
2023/02/27 08:38:13;;;;;;;1.63;0.77;;;13.80;53.20;;;;;;6245688;22;19996;-76
2023/02/27 08:40:39;;;;;;;1.00;0.90;;;13.80;53.20;;;;;;6245233;22;20312;-75
2023/02/27 08:43:05;;;;;;;5.72;1.30;;;13.80;53.30;;;;;;6246348;22;20004;-76
2023/02/27 08:45:31;;;;;;;1.58;1.02;;;13.80;53.20;;;;;;6246390;22;20000;-76
2023/02/27 08:47:57;;;;;;;2.20;1.15;;;13.80;53.30;;;;;;6246679;22;20004;-76
2023/02/27 08:50:23;;;;;;;2.08;0.88;;;13.80;53.40;;;;;;6246196;22;20431;-76
2023/02/27 08:52:49;;;;;;;1.52;0.63;;;13.80;53.40;;;;;;6256231;22;19992;-76
2023/02/27 08:55:15;;;;;;;2.92;1.27;;;13.80;54.10;;;;;;6246007;22;20093;-76
2023/02/27 08:57:41;;;;;;;1.83;0.77;;;13.80;53.60;;;;;;6246085;22;20462;-75
2023/02/27 09:00:09;;;;;;;1.77;0.77;;;13.80;53.60;;;;;;6246110;22;19996;-76
2023/02/27 09:02:35;;;;;;;1.67;1.10;;;13.80;53.70;;;;;;6245861;22;20004;-76
2023/02/27 09:05:01;;;;;;;1.52;0.80;;;13.80;53.90;;;;;;6246106;22;20004;-76
2023/02/27 09:07:28;;;;;;;2.15;1.00;;;13.80;53.90;;;;;;6246374;22;20079;-76
2023/02/27 09:09:54;;;;;;;1.98;0.80;;;13.80;54.00;;;;;;6246471;22;20296;-80
2023/02/27 09:12:20;;;;;;;1.88;0.90;;;13.80;54.00;;;;;;6246170;22;20003;-78
2023/02/27 09:14:46;;;;;;;0.95;0.77;;;13.90;54.20;;;;;;6245699;22;19999;-77
2023/02/27 09:17:12;;;;;;;1.55;0.63;;;13.90;54.10;;;;;;6246125;22;19996;-78
2023/02/27 09:19:38;;;;;;;1.58;0.73;;;13.90;54.20;;;;;;6246308;22;20071;-79
2023/02/27 09:22:04;;;;;;;1.20;1.02;;;14.00;54.30;;;;;;6246010;22;20027;-79
2023/02/27 09:24:30;;;;;;;1.85;0.73;;;14.00;54.30;;;;;;6245898;22;20027;-78
2023/02/27 09:26:55;;;;;;;2.70;0.90;;;14.00;54.60;;;;;;6244238;23;20450;-78
2023/02/27 09:29:22;;;;;;;1.23;0.88;;;14.00;54.50;;;;;;6246686;22;20068;-77
2023/02/27 09:31:48;;;;;;;1.10;0.77;;;14.10;54.60;;;;;;6246236;22;20000;-78
2023/02/27 09:34:15;;;;;;;1.42;1.05;;;14.10;54.50;;;;;;6246135;22;20292;-76
2023/02/27 09:36:41;;;;;;;2.92;0.80;;;14.20;54.60;;;;;;6245483;22;19996;-77
2023/02/27 09:39:08;;;;;;;1.08;0.80;;;14.20;54.60;;;;;;6246340;22;19996;-76
2023/02/27 09:41:54;;;;;;;1.00;0.70;;;14.30;54.60;;;;;;6246223;22;20441;-76
2023/02/27 09:44:45;;;;;;;1.35;0.70;;;14.30;54.80;;;;;;6246183;22;20099;-76
2023/02/27 09:47:26;;;;;;;0.95;0.60;;;14.40;54.90;;;;;;6245945;22;20004;-77
2023/02/27 09:49:55;;;;;;;1.10;0.60;;;14.40;54.70;;;;;;6245903;22;20082;-77
2023/02/27 09:52:21;;;;;;;1.73;0.50;;;14.40;54.90;;;;;;6245811;22;19996;-77
2023/02/27 09:54:47;;;;;;;1.95;0.77;;;14.50;54.90;;;;;;6245121;22;19996;-77
2023/02/27 09:57:19;;;;;;;0.85;0.60;;;14.50;54.80;;;;;;6245207;22;19996;-76
2023/02/27 09:59:51;;;;;;;0.93;0.52;;;14.50;54.80;;;;;;6245148;22;20004;-76
2023/02/27 10:02:51;;;;;;;1.02;0.52;;;14.60;54.80;;;;;;6244465;22;20076;-76
2023/02/27 10:05:38;;;;;;;1.52;0.70;;;14.60;54.80;;;;;;6244628;22;20082;-75
2023/02/27 10:08:07;;;;;;;0.75;0.45;;;14.70;54.80;;;;;;6245046;22;20091;-77
2023/02/27 10:10:44;;;;;;;1.13;0.90;;;14.70;54.70;;;;;;6245011;22;20006;-77
2023/02/27 10:13:40;;;;;;;1.13;0.60;;;14.80;54.50;;;;;;6254942;22;20003;-76
2023/02/27 10:16:14;;;;;;;1.10;0.50;;;14.80;54.50;;;;;;6244984;22;20004;-77
2023/02/27 10:18:50;;;;;;;2.17;0.60;;;14.90;54.50;;;;;;6244639;23;19992;-77
2023/02/27 10:21:23;;;;;;;0.98;0.60;;;14.90;54.50;;;;;;6245084;22;20015;-76
2023/02/27 10:24:22;;;;;;;1.95;0.75;;;15.00;54.50;;;;;;6244866;22;19996;-77
2023/02/27 10:26:51;;;;;;;1.05;0.60;;;15.10;54.50;;;;;;6240633;23;20019;-77
2023/02/27 10:29:30;;;;;;;1.63;0.50;;;15.10;54.40;;;;;;6244938;22;20315;-76
2023/02/27 10:32:14;;;;;;;1.55;0.68;;;15.10;54.40;;;;;;6245444;22;20378;-77
2023/02/27 10:34:42;;;;;;;0.85;0.50;;;15.20;54.40;;;;;;6245124;22;20007;-76
2023/02/27 10:37:14;;;;;;;1.38;0.70;;;15.30;54.40;;;;;;6244905;22;20000;-77
2023/02/27 10:39:46;;;;;;;1.95;0.60;;;15.30;54.50;;;;;;6243593;23;20022;-76
2023/02/27 10:42:15;;;;;;;0.68;0.60;;;15.30;54.40;;;;;;6245029;22;20003;-76
2023/02/27 10:44:40;;;;;;;0.73;0.52;;;15.40;54.50;;;;;;6254704;22;20006;-77
2023/02/27 10:47:14;;;;;;;0.70;0.63;;;15.40;54.40;;;;;;6244818;22;20099;-76
2023/02/27 10:49:41;;;;;;;1.27;0.55;;;15.50;54.50;;;;;;6246592;22;19992;-77
2023/02/27 10:52:13;;;;;;;2.10;0.60;;;15.60;54.60;;;;;;6256639;22;19996;-77
2023/02/27 10:54:40;;;;;;;1.48;0.90;;;15.60;54.60;;;;;;6256464;22;20004;-76
2023/02/27 10:57:18;;;;;;;0.57;0.40;;;15.60;54.50;;;;;;6246603;22;20067;-76
2023/02/27 10:59:52;;;;;;;1.58;0.70;;;15.70;54.50;;;;;;6246281;22;20007;-76
2023/02/27 11:02:32;;;;;;;1.35;0.47;;;15.70;54.60;;;;;;6246112;23;20008;-76
2023/02/27 11:04:58;;;;;;;;;;;15.80;54.40;;;;;;6247035;22;20036;-76
2023/02/27 11:07:35;;;;;;;1.13;0.75;;;15.90;54.30;;;;;;6246862;22;19965;-76
2023/02/27 11:10:23;;;;;;;1.48;0.55;;;15.90;54.40;;;;;;6246652;22;20012;-76
2023/02/27 11:13:01;;;;;;;1.38;0.50;;;16.00;54.30;;;;;;6246554;22;19996;-77
2023/02/27 11:15:34;;;;;;;1.02;0.43;;;16.00;54.40;;;;;;6246798;22;20004;-75
2023/02/27 11:18:23;;;;;;;1.83;0.73;;;16.10;54.30;;;;;;6246459;22;19996;-74
2023/02/27 11:20:49;;;;;;;0.47;0.47;;;16.20;54.30;;;;;;6246471;22;20019;-76
2023/02/27 11:23:24;;;;;;;1.55;0.70;;;16.20;54.00;;;;;;6248874;22;20012;-75
2023/02/27 11:26:07;;;;;;;0.80;0.60;;;16.30;54.10;;;;;;6246394;22;20435;-75
2023/02/27 11:28:33;;;;;;;0.77;0.32;;;16.30;53.90;;;;;;6246374;22;19996;-76
2023/02/27 11:31:14;;;;;;;1.45;0.70;;;16.40;53.80;;;;;;6246263;22;20308;-75
2023/02/27 11:33:50;;;;;;;0.88;0.57;;;16.50;53.70;;;;;;6245952;22;20442;-75
2023/02/27 11:36:16;;;;;;;1.40;0.45;;;16.60;53.80;;;;;;6246321;22;20023;-74
2023/02/27 11:38:51;;;;;;;0.88;0.68;;;16.70;53.70;;;;;;6246391;22;20363;-75
2023/02/27 11:41:18;;;;;;;1.90;0.60;;;16.70;53.50;;;;;;6246231;22;20000;-75
2023/02/27 11:43:51;;;;;;;0.65;0.40;;;16.80;53.20;;;;;;6246242;22;19992;-75
2023/02/27 11:46:21;;;;;;;0.65;0.40;;;16.80;53.10;;;;;;6246292;22;20090;-75
2023/02/27 11:48:50;;;;;;;2.20;0.50;;;16.90;53.10;;;;;;6246157;22;19996;-75
2023/02/27 11:51:21;;;;;;;0.75;0.30;;;16.80;53.50;;;;;;6246016;22;20227;-75
2023/02/27 11:54:14;;;;;;;0.85;0.57;;;16.80;52.50;;;;;;6246199;22;20372;-76
2023/02/27 11:56:59;;;;;;;1.35;0.60;;;16.70;53.30;;;;;;6245634;22;20020;-75
2023/02/27 11:59:40;;;;;;;0.55;0.43;;;16.60;53.60;;;;;;6245651;22;20312;-75
2023/02/27 12:02:27;;;;;;;0.82;0.40;;;16.50;54.00;;;;;;6246150;22;20386;-75
2023/02/27 12:05:11;;;;;;;1.02;0.40;;;16.50;54.40;;;;;;6246207;22;20073;-74
2023/02/27 12:07:56;;;;;;;1.42;0.40;;;16.50;54.70;;;;;;6246007;22;20087;-75
2023/02/27 12:10:29;;;;;;;1.75;0.50;;;16.40;54.90;;;;;;6245935;22;20320;-74
2023/02/27 12:13:11;;;;;;;1.35;0.47;;;16.40;54.90;;;;;;6245699;22;20079;-74
2023/02/27 12:16:01;;;;;;;2.25;0.60;;;16.50;54.80;;;;;;6245938;22;20095;-74
2023/02/27 12:18:37;;;;;;;1.75;0.60;;;16.50;55.20;;;;;;6245943;22;19996;-74
2023/02/27 12:21:11;;;;;;;1.10;0.40;;;16.40;55.10;;;;;;6245627;22;20000;-74
2023/02/27 12:23:49;;;;;;;0.47;0.40;;;16.50;55.10;;;;;;6245880;22;20003;-74
2023/02/27 12:26:27;;;;;;;0.80;0.55;;;16.70;54.90;;;;;;6245870;22;20031;-74
2023/02/27 12:29:02;;;;;;;0.73;0.35;;;16.70;54.60;;;;;;6245906;22;20000;-75
2023/02/27 12:31:48;;;;;;;0.80;0.40;;;16.80;54.50;;;;;;6245859;22;19997;-75
2023/02/27 12:34:24;;;;;;;0.60;0.40;;;16.90;54.50;;;;;;6245861;22;19996;-75
2023/02/27 12:36:52;;;;;;;0.82;0.30;;;16.90;53.90;;;;;;6245879;22;20123;-74
2023/02/27 12:39:21;;;;;;;1.65;0.30;;;16.90;53.10;;;;;;6245717;22;20004;-75
2023/02/27 12:41:47;;;;;;;1.00;0.40;;;16.80;53.30;;;;;;6245516;22;20423;-74
2023/02/27 12:44:47;;;;;;;0.60;0.22;;;16.80;53.90;;;;;;6245632;22;20000;-75
2023/02/27 12:47:21;;;;;;;1.60;0.50;;;16.70;54.30;;;;;;6245644;23;20012;-74
2023/02/27 12:50:05;;;;;;;1.50;0.50;;;16.70;54.60;;;;;;6245342;22;19997;-75
2023/02/27 12:52:55;;;;;;;2.70;0.47;;;16.60;55.00;;;;;;6245631;22;20058;-74
2023/02/27 12:55:31;;;;;;;0.57;0.50;;;16.60;54.40;;;;;;6245789;22;20311;-74
2023/02/27 12:58:16;;;;;;;1.40;0.57;;;16.70;54.70;;;;;;6245952;22;20381;-75
2023/02/27 13:00:49;;;;;;;1.80;0.70;;;16.80;54.50;;;;;;6245491;23;20381;-75
2023/02/27 13:03:31;;;;;;;0.35;0.30;;;17.00;54.10;;;;;;6245082;22;20078;-74
2023/02/27 13:06:03;;;;;;;0.47;0.30;;;17.20;53.80;;;;;;6245294;22;20011;-74
2023/02/27 13:08:32;;;;;;;3.03;0.63;;;17.20;53.60;;;;;;6245376;22;19997;-74
2023/02/27 13:11:07;;;;;;;1.48;0.43;;;17.20;53.40;;;;;;6245309;22;20011;-74
2023/02/27 13:13:36;;;;;;;1.52;0.57;;;17.10;53.70;;;;;;6245081;22;20438;-74
2023/02/27 13:16:08;;;;;;;1.13;0.40;;;17.10;53.80;;;;;;6245004;22;20000;-75
2023/02/27 13:18:44;;;;;;;0.85;0.40;;;17.20;53.70;;;;;;6245123;22;19997;-74